BIENTÔT MET'MAP
version 2.0 !

Prévue avant fin octobre,
la nouvelle version sera
plus belle, plus complète
et hébergée sur un serveur
3 fois plus puissant...
et toujours gratuite !


Pas compatible ?
Essayez la version Mobile !

SE CONNECTER : | S'inscrire | Disclaimer | Découvrir Orbifly |
Code OACI :
Lgende : VFR VFR Marginal IFR IFR Intensif IFR Trs Intensif
Visi :
Plafond :
>= 8 km
>= 3000ft
5 8 km
1000 3000 ft
1500m 5 km
500 1000 ft
800 1500m
200 500 ft
< 800m
< 200 ft

METAR - LICJ Palermo Punta Raisi - 04 Dec 2020 02:44 UTC - Data Source NOAA   


- Altitude de l'aérodrome : 65 ft
- Code IATA : PMO
- Pas de NOTAMs connus.


LICJ - Palermo Punta Raisi

Dernier METAR connu : 2015/08/11 07:50 LICJ 110750Z 15016KT 120V180 1700 TSRA FEW022CB BKN025 19/18 Q1012
TAF TAF LICJ
Valide du 04 à 00h jusqu'au 05 à 00h UTC


032300Z 0400/0424 29013KT 9999 SCT030
BECMG 0403/0406 19015KT
BECMG 0412/0415 19020G30KT

Source NOAA


MET'MAP, la Météo Aéronautique d'un coup d'oeil ! - Copyright ORBIFLY Décembre 2007

Développement & Programmation : Alexandra Zaïnal
Co-Développement : Marc-Olivier Méhu
Soutien technique & logistique : Manuel Goepfert
Conception & Financement : Baudouin d'Aumeries